sensor_id;sensor_type;location;lat;lon;timestamp;temperature;humidity
6865;DHT22;3471;49.678;8.388;2023-04-24T00:00:24;13.60;99.90
6865;DHT22;3471;49.678;8.388;2023-04-24T00:02:50;13.50;99.90
6865;DHT22;3471;49.678;8.388;2023-04-24T00:05:16;13.50;99.90
6865;DHT22;3471;49.678;8.388;2023-04-24T00:07:43;13.50;99.90
6865;DHT22;3471;49.678;8.388;2023-04-24T00:10:09;13.60;99.90
6865;DHT22;3471;49.678;8.388;2023-04-24T00:12:35;13.60;99.90
6865;DHT22;3471;49.678;8.388;2023-04-24T00:15:02;13.60;99.90
6865;DHT22;3471;49.678;8.388;2023-04-24T00:17:27;13.50;99.90
6865;DHT22;3471;49.678;8.388;2023-04-24T00:19:53;13.50;99.90
6865;DHT22;3471;49.678;8.388;2023-04-24T00:22:27;13.50;99.90
6865;DHT22;3471;49.678;8.388;2023-04-24T00:24:54;13.40;99.90
6865;DHT22;3471;49.678;8.388;2023-04-24T00:27:20;13.40;99.90
6865;DHT22;3471;49.678;8.388;2023-04-24T00:29:46;13.40;99.90
6865;DHT22;3471;49.678;8.388;2023-04-24T00:32:12;13.40;99.90
6865;DHT22;3471;49.678;8.388;2023-04-24T00:34:37;13.40;99.90
6865;DHT22;3471;49.678;8.388;2023-04-24T00:37:03;13.40;99.90
6865;DHT22;3471;49.678;8.388;2023-04-24T00:39:28;13.50;99.90
6865;DHT22;3471;49.678;8.388;2023-04-24T00:41:54;13.40;99.90
6865;DHT22;3471;49.678;8.388;2023-04-24T00:44:20;13.50;99.90
6865;DHT22;3471;49.678;8.388;2023-04-24T00:46:46;13.40;99.90
6865;DHT22;3471;49.678;8.388;2023-04-24T00:49:13;13.40;99.90
6865;DHT22;3471;49.678;8.388;2023-04-24T00:51:39;13.40;99.90
6865;DHT22;3471;49.678;8.388;2023-04-24T00:54:06;13.40;99.90
6865;DHT22;3471;49.678;8.388;2023-04-24T00:56:31;13.40;99.90
6865;DHT22;3471;49.678;8.388;2023-04-24T00:58:57;13.40;99.90
6865;DHT22;3471;49.678;8.388;2023-04-24T01:01:23;13.40;99.90
6865;DHT22;3471;49.678;8.388;2023-04-24T01:03:51;13.30;99.90
6865;DHT22;3471;49.678;8.388;2023-04-24T01:06:17;13.30;99.90
6865;DHT22;3471;49.678;8.388;2023-04-24T01:08:43;13.30;99.90
6865;DHT22;3471;49.678;8.388;2023-04-24T01:11:11;13.20;99.90
6865;DHT22;3471;49.678;8.388;2023-04-24T01:13:36;13.20;99.90
6865;DHT22;3471;49.678;8.388;2023-04-24T01:16:02;13.20;99.90
6865;DHT22;3471;49.678;8.388;2023-04-24T01:18:28;13.20;99.90
6865;DHT22;3471;49.678;8.388;2023-04-24T01:20:57;13.20;99.90
6865;DHT22;3471;49.678;8.388;2023-04-24T01:23:23;13.30;99.90
6865;DHT22;3471;49.678;8.388;2023-04-24T01:25:49;13.20;99.90
6865;DHT22;3471;49.678;8.388;2023-04-24T01:28:16;13.20;99.90
6865;DHT22;3471;49.678;8.388;2023-04-24T01:30:42;13.20;99.90
6865;DHT22;3471;49.678;8.388;2023-04-24T01:33:08;13.30;99.90
6865;DHT22;3471;49.678;8.388;2023-04-24T01:35:34;13.30;99.90
6865;DHT22;3471;49.678;8.388;2023-04-24T01:38:01;13.40;99.90
6865;DHT22;3471;49.678;8.388;2023-04-24T01:40:27;13.40;99.90
6865;DHT22;3471;49.678;8.388;2023-04-24T01:42:53;13.50;99.90
6865;DHT22;3471;49.678;8.388;2023-04-24T01:45:18;13.50;99.90
6865;DHT22;3471;49.678;8.388;2023-04-24T01:47:45;13.50;99.90
6865;DHT22;3471;49.678;8.388;2023-04-24T01:50:11;13.50;99.90
6865;DHT22;3471;49.678;8.388;2023-04-24T01:52:37;13.50;99.90
6865;DHT22;3471;49.678;8.388;2023-04-24T01:55:04;13.50;99.90
6865;DHT22;3471;49.678;8.388;2023-04-24T01:57:31;13.50;99.90
6865;DHT22;3471;49.678;8.388;2023-04-24T01:59:57;13.50;99.90
6865;DHT22;3471;49.678;8.388;2023-04-24T02:02:22;13.50;99.90
6865;DHT22;3471;49.678;8.388;2023-04-24T02:04:50;13.50;99.90
6865;DHT22;3471;49.678;8.388;2023-04-24T02:07:15;13.50;99.90
6865;DHT22;3471;49.678;8.388;2023-04-24T02:09:41;13.50;99.90
6865;DHT22;3471;49.678;8.388;2023-04-24T02:12:07;13.50;99.90
6865;DHT22;3471;49.678;8.388;2023-04-24T02:14:32;13.50;99.90
6865;DHT22;3471;49.678;8.388;2023-04-24T02:16:58;13.50;99.90
6865;DHT22;3471;49.678;8.388;2023-04-24T02:19:23;13.50;99.90
6865;DHT22;3471;49.678;8.388;2023-04-24T02:21:49;13.40;99.90
6865;DHT22;3471;49.678;8.388;2023-04-24T02:24:15;13.30;99.90
6865;DHT22;3471;49.678;8.388;2023-04-24T02:26:41;13.30;99.90
6865;DHT22;3471;49.678;8.388;2023-04-24T02:29:06;13.20;99.90
6865;DHT22;3471;49.678;8.388;2023-04-24T02:31:32;13.10;99.90
6865;DHT22;3471;49.678;8.388;2023-04-24T02:33:58;13.00;99.90
6865;DHT22;3471;49.678;8.388;2023-04-24T02:36:23;12.90;99.90
6865;DHT22;3471;49.678;8.388;2023-04-24T02:38:49;12.90;99.90
6865;DHT22;3471;49.678;8.388;2023-04-24T02:41:14;12.80;99.90
6865;DHT22;3471;49.678;8.388;2023-04-24T02:43:40;12.80;99.90
6865;DHT22;3471;49.678;8.388;2023-04-24T02:46:05;12.70;99.90
6865;DHT22;3471;49.678;8.388;2023-04-24T02:48:31;12.60;99.90
6865;DHT22;3471;49.678;8.388;2023-04-24T02:50:57;12.60;99.90
6865;DHT22;3471;49.678;8.388;2023-04-24T02:53:23;12.60;99.90
6865;DHT22;3471;49.678;8.388;2023-04-24T02:55:48;12.50;99.90
6865;DHT22;3471;49.678;8.388;2023-04-24T02:58:14;12.60;99.90
6865;DHT22;3471;49.678;8.388;2023-04-24T03:00:40;12.60;99.90
6865;DHT22;3471;49.678;8.388;2023-04-24T03:03:05;12.60;99.90
6865;DHT22;3471;49.678;8.388;2023-04-24T03:05:32;12.60;99.90
6865;DHT22;3471;49.678;8.388;2023-04-24T03:07:57;12.60;99.90
6865;DHT22;3471;49.678;8.388;2023-04-24T03:10:23;12.60;99.90
6865;DHT22;3471;49.678;8.388;2023-04-24T03:12:49;12.60;99.90
6865;DHT22;3471;49.678;8.388;2023-04-24T03:15:15;12.60;99.90
6865;DHT22;3471;49.678;8.388;2023-04-24T03:17:40;12.60;99.90
6865;DHT22;3471;49.678;8.388;2023-04-24T03:20:07;12.60;99.90
6865;DHT22;3471;49.678;8.388;2023-04-24T03:22:33;12.60;99.90
6865;DHT22;3471;49.678;8.388;2023-04-24T03:24:59;12.50;99.90
6865;DHT22;3471;49.678;8.388;2023-04-24T03:27:25;12.60;99.90
6865;DHT22;3471;49.678;8.388;2023-04-24T03:29:50;12.50;99.90
6865;DHT22;3471;49.678;8.388;2023-04-24T03:32:21;12.50;99.90
6865;DHT22;3471;49.678;8.388;2023-04-24T03:34:48;12.50;99.90
6865;DHT22;3471;49.678;8.388;2023-04-24T03:37:14;12.50;99.90
6865;DHT22;3471;49.678;8.388;2023-04-24T03:39:40;12.50;99.90
6865;DHT22;3471;49.678;8.388;2023-04-24T03:42:05;12.50;99.90
6865;DHT22;3471;49.678;8.388;2023-04-24T03:44:31;12.50;99.90
6865;DHT22;3471;49.678;8.388;2023-04-24T03:46:58;12.40;99.90
6865;DHT22;3471;49.678;8.388;2023-04-24T03:49:23;12.30;99.90
6865;DHT22;3471;49.678;8.388;2023-04-24T03:51:49;12.20;99.90
6865;DHT22;3471;49.678;8.388;2023-04-24T03:54:14;12.10;99.90
6865;DHT22;3471;49.678;8.388;2023-04-24T03:56:40;12.00;99.90
6865;DHT22;3471;49.678;8.388;2023-04-24T03:59:05;12.00;99.90
6865;DHT22;3471;49.678;8.388;2023-04-24T04:01:31;11.90;99.90
6865;DHT22;3471;49.678;8.388;2023-04-24T04:03:57;11.90;99.90
6865;DHT22;3471;49.678;8.388;2023-04-24T04:06:22;11.80;99.90
6865;DHT22;3471;49.678;8.388;2023-04-24T04:08:48;11.80;99.90
6865;DHT22;3471;49.678;8.388;2023-04-24T04:11:13;11.70;99.90
6865;DHT22;3471;49.678;8.388;2023-04-24T04:13:39;11.70;99.90
6865;DHT22;3471;49.678;8.388;2023-04-24T04:16:05;11.70;99.90
6865;DHT22;3471;49.678;8.388;2023-04-24T04:18:30;11.70;99.90
6865;DHT22;3471;49.678;8.388;2023-04-24T04:20:56;11.60;99.90
6865;DHT22;3471;49.678;8.388;2023-04-24T04:23:22;11.60;99.90
6865;DHT22;3471;49.678;8.388;2023-04-24T04:25:48;11.50;99.90
6865;DHT22;3471;49.678;8.388;2023-04-24T04:28:15;11.50;99.90
6865;DHT22;3471;49.678;8.388;2023-04-24T04:30:40;11.50;99.90
6865;DHT22;3471;49.678;8.388;2023-04-24T04:33:06;11.50;99.90
6865;DHT22;3471;49.678;8.388;2023-04-24T04:35:33;11.50;99.90
6865;DHT22;3471;49.678;8.388;2023-04-24T04:37:59;11.50;99.90
6865;DHT22;3471;49.678;8.388;2023-04-24T04:40:24;11.50;99.90
6865;DHT22;3471;49.678;8.388;2023-04-24T04:42:50;11.50;99.90
6865;DHT22;3471;49.678;8.388;2023-04-24T04:45:18;11.50;99.90
6865;DHT22;3471;49.678;8.388;2023-04-24T04:47:44;11.50;99.90
6865;DHT22;3471;49.678;8.388;2023-04-24T04:50:10;11.50;99.90
6865;DHT22;3471;49.678;8.388;2023-04-24T04:52:36;11.50;99.90
6865;DHT22;3471;49.678;8.388;2023-04-24T04:55:01;11.60;99.90
6865;DHT22;3471;49.678;8.388;2023-04-24T04:57:27;11.50;99.90
6865;DHT22;3471;49.678;8.388;2023-04-24T04:59:53;11.50;99.90
6865;DHT22;3471;49.678;8.388;2023-04-24T05:02:18;11.50;99.90
6865;DHT22;3471;49.678;8.388;2023-04-24T05:04:44;11.50;99.90
6865;DHT22;3471;49.678;8.388;2023-04-24T05:07:10;11.50;99.90
6865;DHT22;3471;49.678;8.388;2023-04-24T05:09:36;11.50;99.90
6865;DHT22;3471;49.678;8.388;2023-04-24T05:12:02;11.40;99.90
6865;DHT22;3471;49.678;8.388;2023-04-24T05:14:28;11.40;99.90
6865;DHT22;3471;49.678;8.388;2023-04-24T05:16:54;11.30;99.90
6865;DHT22;3471;49.678;8.388;2023-04-24T05:19:19;11.40;99.90
6865;DHT22;3471;49.678;8.388;2023-04-24T05:21:45;11.40;99.90
6865;DHT22;3471;49.678;8.388;2023-04-24T05:24:11;11.40;99.90
6865;DHT22;3471;49.678;8.388;2023-04-24T05:26:36;11.40;99.90
6865;DHT22;3471;49.678;8.388;2023-04-24T05:29:02;11.40;99.90
6865;DHT22;3471;49.678;8.388;2023-04-24T05:31:28;11.50;99.90
6865;DHT22;3471;49.678;8.388;2023-04-24T05:33:53;11.50;99.90
6865;DHT22;3471;49.678;8.388;2023-04-24T05:36:19;11.50;99.90
6865;DHT22;3471;49.678;8.388;2023-04-24T05:38:45;11.50;99.90
6865;DHT22;3471;49.678;8.388;2023-04-24T05:41:10;11.50;99.90
6865;DHT22;3471;49.678;8.388;2023-04-24T05:43:36;11.60;99.90
6865;DHT22;3471;49.678;8.388;2023-04-24T05:46:01;11.60;99.90
6865;DHT22;3471;49.678;8.388;2023-04-24T05:48:27;11.60;99.90
6865;DHT22;3471;49.678;8.388;2023-04-24T05:50:53;11.60;99.90
6865;DHT22;3471;49.678;8.388;2023-04-24T05:53:19;11.70;99.90
6865;DHT22;3471;49.678;8.388;2023-04-24T05:55:44;11.70;99.90
6865;DHT22;3471;49.678;8.388;2023-04-24T05:58:11;11.60;99.90
6865;DHT22;3471;49.678;8.388;2023-04-24T06:00:37;11.60;99.90
6865;DHT22;3471;49.678;8.388;2023-04-24T06:03:05;11.60;99.90
6865;DHT22;3471;49.678;8.388;2023-04-24T06:05:31;11.60;99.90
6865;DHT22;3471;49.678;8.388;2023-04-24T06:07:56;11.60;99.90
6865;DHT22;3471;49.678;8.388;2023-04-24T06:10:22;11.60;99.90
6865;DHT22;3471;49.678;8.388;2023-04-24T06:12:47;11.60;99.90
6865;DHT22;3471;49.678;8.388;2023-04-24T06:15:13;11.60;99.90
6865;DHT22;3471;49.678;8.388;2023-04-24T06:17:38;11.60;99.90
6865;DHT22;3471;49.678;8.388;2023-04-24T06:20:05;11.70;99.90
6865;DHT22;3471;49.678;8.388;2023-04-24T06:22:32;11.80;99.90
6865;DHT22;3471;49.678;8.388;2023-04-24T06:24:57;11.80;99.90
6865;DHT22;3471;49.678;8.388;2023-04-24T06:27:23;11.90;99.90
6865;DHT22;3471;49.678;8.388;2023-04-24T06:29:48;12.00;99.90
6865;DHT22;3471;49.678;8.388;2023-04-24T06:32:21;12.10;99.90
6865;DHT22;3471;49.678;8.388;2023-04-24T06:34:47;12.20;99.90
6865;DHT22;3471;49.678;8.388;2023-04-24T06:37:13;12.30;99.90
6865;DHT22;3471;49.678;8.388;2023-04-24T06:39:39;12.30;99.90
6865;DHT22;3471;49.678;8.388;2023-04-24T06:42:05;12.40;99.90
6865;DHT22;3471;49.678;8.388;2023-04-24T06:44:30;12.50;99.90
6865;DHT22;3471;49.678;8.388;2023-04-24T06:46:56;12.50;99.90
6865;DHT22;3471;49.678;8.388;2023-04-24T06:49:21;12.60;99.90
6865;DHT22;3471;49.678;8.388;2023-04-24T06:51:47;12.60;99.90
6865;DHT22;3471;49.678;8.388;2023-04-24T06:54:12;12.60;99.90
6865;DHT22;3471;49.678;8.388;2023-04-24T06:56:38;12.60;99.90
6865;DHT22;3471;49.678;8.388;2023-04-24T06:59:03;12.50;99.90
6865;DHT22;3471;49.678;8.388;2023-04-24T07:01:29;12.60;99.90
6865;DHT22;3471;49.678;8.388;2023-04-24T07:03:55;12.60;99.90
6865;DHT22;3471;49.678;8.388;2023-04-24T07:06:20;12.60;99.90
6865;DHT22;3471;49.678;8.388;2023-04-24T07:08:48;12.70;99.90
6865;DHT22;3471;49.678;8.388;2023-04-24T07:11:13;12.80;99.90
6865;DHT22;3471;49.678;8.388;2023-04-24T07:13:39;12.90;99.90
6865;DHT22;3471;49.678;8.388;2023-04-24T07:16:07;13.00;99.90
6865;DHT22;3471;49.678;8.388;2023-04-24T07:18:33;13.00;99.90
6865;DHT22;3471;49.678;8.388;2023-04-24T07:20:59;12.90;99.90
6865;DHT22;3471;49.678;8.388;2023-04-24T07:23:24;13.00;99.90
6865;DHT22;3471;49.678;8.388;2023-04-24T07:25:50;13.10;99.90
6865;DHT22;3471;49.678;8.388;2023-04-24T07:28:16;13.20;99.90
6865;DHT22;3471;49.678;8.388;2023-04-24T07:30:43;13.30;99.90
6865;DHT22;3471;49.678;8.388;2023-04-24T07:33:09;13.40;99.90
6865;DHT22;3471;49.678;8.388;2023-04-24T07:35:36;13.40;99.90
6865;DHT22;3471;49.678;8.388;2023-04-24T07:38:02;13.50;99.90
6865;DHT22;3471;49.678;8.388;2023-04-24T07:40:27;13.50;99.90
6865;DHT22;3471;49.678;8.388;2023-04-24T07:42:53;13.50;99.90
6865;DHT22;3471;49.678;8.388;2023-04-24T07:45:18;13.40;99.90
6865;DHT22;3471;49.678;8.388;2023-04-24T07:47:44;13.40;99.90
6865;DHT22;3471;49.678;8.388;2023-04-24T07:50:11;13.30;99.90
6865;DHT22;3471;49.678;8.388;2023-04-24T07:52:37;13.30;99.90
6865;DHT22;3471;49.678;8.388;2023-04-24T07:55:03;13.30;99.90
6865;DHT22;3471;49.678;8.388;2023-04-24T07:57:29;13.40;99.90
6865;DHT22;3471;49.678;8.388;2023-04-24T07:59:55;13.40;99.90
6865;DHT22;3471;49.678;8.388;2023-04-24T08:02:20;13.40;99.90
6865;DHT22;3471;49.678;8.388;2023-04-24T08:04:54;13.40;99.90
6865;DHT22;3471;49.678;8.388;2023-04-24T08:07:20;13.60;99.90
6865;DHT22;3471;49.678;8.388;2023-04-24T08:09:46;13.70;99.90
6865;DHT22;3471;49.678;8.388;2023-04-24T08:12:11;13.70;99.90
6865;DHT22;3471;49.678;8.388;2023-04-24T08:14:37;13.70;99.90
6865;DHT22;3471;49.678;8.388;2023-04-24T08:17:02;13.60;99.90
6865;DHT22;3471;49.678;8.388;2023-04-24T08:19:28;13.60;99.90
6865;DHT22;3471;49.678;8.388;2023-04-24T08:21:54;13.70;99.90
6865;DHT22;3471;49.678;8.388;2023-04-24T08:24:20;13.80;99.90
6865;DHT22;3471;49.678;8.388;2023-04-24T08:26:45;13.80;99.90
6865;DHT22;3471;49.678;8.388;2023-04-24T08:29:11;13.80;99.90
6865;DHT22;3471;49.678;8.388;2023-04-24T08:31:37;13.80;99.90
6865;DHT22;3471;49.678;8.388;2023-04-24T08:34:02;13.90;99.90
6865;DHT22;3471;49.678;8.388;2023-04-24T08:36:28;14.00;99.90
6865;DHT22;3471;49.678;8.388;2023-04-24T08:38:54;14.00;99.90
6865;DHT22;3471;49.678;8.388;2023-04-24T08:41:19;14.00;99.90
6865;DHT22;3471;49.678;8.388;2023-04-24T08:43:46;14.10;99.90
6865;DHT22;3471;49.678;8.388;2023-04-24T08:46:13;14.10;99.90
6865;DHT22;3471;49.678;8.388;2023-04-24T08:48:40;14.00;99.90
6865;DHT22;3471;49.678;8.388;2023-04-24T08:51:07;14.10;99.90
6865;DHT22;3471;49.678;8.388;2023-04-24T08:53:33;14.20;99.90
6865;DHT22;3471;49.678;8.388;2023-04-24T08:56:01;14.30;99.90
6865;DHT22;3471;49.678;8.388;2023-04-24T08:58:27;14.30;99.90
6865;DHT22;3471;49.678;8.388;2023-04-24T09:00:55;14.10;99.90
6865;DHT22;3471;49.678;8.388;2023-04-24T09:03:21;14.00;99.90
6865;DHT22;3471;49.678;8.388;2023-04-24T09:05:48;13.80;99.90
6865;DHT22;3471;49.678;8.388;2023-04-24T09:08:16;13.90;99.90
6865;DHT22;3471;49.678;8.388;2023-04-24T09:10:43;14.00;99.90
6865;DHT22;3471;49.678;8.388;2023-04-24T09:13:08;14.00;99.90
6865;DHT22;3471;49.678;8.388;2023-04-24T09:15:36;14.00;99.90
6865;DHT22;3471;49.678;8.388;2023-04-24T09:18:02;14.10;99.90
6865;DHT22;3471;49.678;8.388;2023-04-24T09:20:27;14.00;99.90
6865;DHT22;3471;49.678;8.388;2023-04-24T09:22:59;13.90;99.90
6865;DHT22;3471;49.678;8.388;2023-04-24T09:25:31;13.90;99.90
6865;DHT22;3471;49.678;8.388;2023-04-24T09:28:01;13.90;99.90
6865;DHT22;3471;49.678;8.388;2023-04-24T09:30:28;14.00;99.90
6865;DHT22;3471;49.678;8.388;2023-04-24T09:33:14;14.20;99.90
6865;DHT22;3471;49.678;8.388;2023-04-24T09:35:51;14.30;99.90
6865;DHT22;3471;49.678;8.388;2023-04-24T09:38:17;14.40;99.90
6865;DHT22;3471;49.678;8.388;2023-04-24T09:40:43;14.50;99.90
6865;DHT22;3471;49.678;8.388;2023-04-24T09:43:11;14.40;99.90
6865;DHT22;3471;49.678;8.388;2023-04-24T09:45:39;14.60;99.90
6865;DHT22;3471;49.678;8.388;2023-04-24T09:48:05;14.70;99.90
6865;DHT22;3471;49.678;8.388;2023-04-24T09:50:32;14.60;99.90
6865;DHT22;3471;49.678;8.388;2023-04-24T09:53:02;14.50;99.90
6865;DHT22;3471;49.678;8.388;2023-04-24T09:55:28;14.50;99.90
6865;DHT22;3471;49.678;8.388;2023-04-24T09:58:01;14.50;99.90
6865;DHT22;3471;49.678;8.388;2023-04-24T10:00:29;14.50;99.90
6865;DHT22;3471;49.678;8.388;2023-04-24T10:03:04;14.60;99.90
6865;DHT22;3471;49.678;8.388;2023-04-24T10:05:34;14.50;99.90
6865;DHT22;3471;49.678;8.388;2023-04-24T10:10:36;14.80;99.90
6865;DHT22;3471;49.678;8.388;2023-04-24T10:13:04;15.00;99.90
6865;DHT22;3471;49.678;8.388;2023-04-24T10:15:30;15.10;99.90
6865;DHT22;3471;49.678;8.388;2023-04-24T10:17:58;15.10;99.90
6865;DHT22;3471;49.678;8.388;2023-04-24T10:20:27;15.10;99.90
6865;DHT22;3471;49.678;8.388;2023-04-24T10:22:55;15.10;99.90
6865;DHT22;3471;49.678;8.388;2023-04-24T10:25:26;15.00;99.90
6865;DHT22;3471;49.678;8.388;2023-04-24T10:27:52;14.90;99.90
6865;DHT22;3471;49.678;8.388;2023-04-24T10:30:19;14.70;99.90
6865;DHT22;3471;49.678;8.388;2023-04-24T10:32:45;14.50;99.90
6865;DHT22;3471;49.678;8.388;2023-04-24T10:35:15;14.30;99.90
6865;DHT22;3471;49.678;8.388;2023-04-24T10:37:45;14.10;99.90
6865;DHT22;3471;49.678;8.388;2023-04-24T10:40:17;14.00;99.90
6865;DHT22;3471;49.678;8.388;2023-04-24T10:42:47;14.10;99.90
6865;DHT22;3471;49.678;8.388;2023-04-24T10:45:17;14.20;99.90
6865;DHT22;3471;49.678;8.388;2023-04-24T10:47:56;14.40;99.90
6865;DHT22;3471;49.678;8.388;2023-04-24T10:50:22;14.60;99.90
6865;DHT22;3471;49.678;8.388;2023-04-24T10:52:49;14.80;99.90
6865;DHT22;3471;49.678;8.388;2023-04-24T10:55:16;15.10;99.90
6865;DHT22;3471;49.678;8.388;2023-04-24T10:58:05;15.20;99.90
6865;DHT22;3471;49.678;8.388;2023-04-24T11:00:31;15.20;99.90
6865;DHT22;3471;49.678;8.388;2023-04-24T11:02:57;15.10;99.90
6865;DHT22;3471;49.678;8.388;2023-04-24T11:05:48;15.00;99.90
6865;DHT22;3471;49.678;8.388;2023-04-24T11:13:24;14.70;99.90
6865;DHT22;3471;49.678;8.388;2023-04-24T11:24:25;14.80;99.90
6865;DHT22;3471;49.678;8.388;2023-04-24T11:26:55;14.80;99.90
6865;DHT22;3471;49.678;8.388;2023-04-24T11:29:22;14.80;99.90
6865;DHT22;3471;49.678;8.388;2023-04-24T11:31:48;14.50;99.90
6865;DHT22;3471;49.678;8.388;2023-04-24T11:34:17;14.40;99.90
6865;DHT22;3471;49.678;8.388;2023-04-24T11:36:44;14.30;99.90
6865;DHT22;3471;49.678;8.388;2023-04-24T11:39:10;14.10;99.90
6865;DHT22;3471;49.678;8.388;2023-04-24T11:41:37;14.10;99.90
6865;DHT22;3471;49.678;8.388;2023-04-24T11:44:06;14.20;99.90
6865;DHT22;3471;49.678;8.388;2023-04-24T11:46:32;14.60;99.90
6865;DHT22;3471;49.678;8.388;2023-04-24T11:48:58;14.90;99.90
6865;DHT22;3471;49.678;8.388;2023-04-24T11:51:26;15.20;99.90
6865;DHT22;3471;49.678;8.388;2023-04-24T11:53:56;15.60;99.90
6865;DHT22;3471;49.678;8.388;2023-04-24T11:56:25;15.80;99.90
6865;DHT22;3471;49.678;8.388;2023-04-24T11:58:53;15.80;99.90
6865;DHT22;3471;49.678;8.388;2023-04-24T12:01:20;15.90;99.90
6865;DHT22;3471;49.678;8.388;2023-04-24T12:03:50;16.20;99.90
6865;DHT22;3471;49.678;8.388;2023-04-24T12:06:18;16.40;99.90
6865;DHT22;3471;49.678;8.388;2023-04-24T12:08:47;16.40;99.90
6865;DHT22;3471;49.678;8.388;2023-04-24T12:11:16;16.50;99.90
6865;DHT22;3471;49.678;8.388;2023-04-24T12:13:43;16.50;99.90
6865;DHT22;3471;49.678;8.388;2023-04-24T12:16:08;16.40;99.90
6865;DHT22;3471;49.678;8.388;2023-04-24T12:18:34;16.20;99.90
6865;DHT22;3471;49.678;8.388;2023-04-24T12:21:21;15.90;99.90
6865;DHT22;3471;49.678;8.388;2023-04-24T12:23:47;15.50;99.90
6865;DHT22;3471;49.678;8.388;2023-04-24T12:26:17;15.30;99.90
6865;DHT22;3471;49.678;8.388;2023-04-24T12:28:47;15.10;99.90
6865;DHT22;3471;49.678;8.388;2023-04-24T12:31:13;15.10;99.90
6865;DHT22;3471;49.678;8.388;2023-04-24T12:33:39;15.00;99.90
6865;DHT22;3471;49.678;8.388;2023-04-24T12:36:05;15.20;99.90
6865;DHT22;3471;49.678;8.388;2023-04-24T12:38:31;15.50;99.90
6865;DHT22;3471;49.678;8.388;2023-04-24T12:41:10;15.90;99.90
6865;DHT22;3471;49.678;8.388;2023-04-24T12:43:36;16.10;99.90
6865;DHT22;3471;49.678;8.388;2023-04-24T12:46:03;16.10;99.90
6865;DHT22;3471;49.678;8.388;2023-04-24T12:48:29;16.30;99.90
6865;DHT22;3471;49.678;8.388;2023-04-24T12:50:57;16.30;99.90
6865;DHT22;3471;49.678;8.388;2023-04-24T12:53:26;16.40;99.90
6865;DHT22;3471;49.678;8.388;2023-04-24T12:55:52;16.30;99.90
6865;DHT22;3471;49.678;8.388;2023-04-24T12:58:21;16.20;99.90
6865;DHT22;3471;49.678;8.388;2023-04-24T13:00:47;16.00;99.90
6865;DHT22;3471;49.678;8.388;2023-04-24T13:03:13;15.60;99.90
6865;DHT22;3471;49.678;8.388;2023-04-24T13:05:39;15.60;99.90
6865;DHT22;3471;49.678;8.388;2023-04-24T13:08:05;15.90;99.90
6865;DHT22;3471;49.678;8.388;2023-04-24T13:10:30;16.40;99.90
6865;DHT22;3471;49.678;8.388;2023-04-24T13:12:56;16.80;99.90
6865;DHT22;3471;49.678;8.388;2023-04-24T13:15:22;17.10;99.90
6865;DHT22;3471;49.678;8.388;2023-04-24T13:17:48;17.30;99.90
6865;DHT22;3471;49.678;8.388;2023-04-24T13:20:13;17.40;99.90
6865;DHT22;3471;49.678;8.388;2023-04-24T13:22:39;17.30;99.90
6865;DHT22;3471;49.678;8.388;2023-04-24T13:25:05;17.20;99.90
6865;DHT22;3471;49.678;8.388;2023-04-24T13:27:31;16.90;99.90
6865;DHT22;3471;49.678;8.388;2023-04-24T13:29:57;16.70;99.90
6865;DHT22;3471;49.678;8.388;2023-04-24T13:32:22;16.40;99.90
6865;DHT22;3471;49.678;8.388;2023-04-24T13:34:48;16.30;99.90
6865;DHT22;3471;49.678;8.388;2023-04-24T13:37:13;16.10;99.90
6865;DHT22;3471;49.678;8.388;2023-04-24T13:39:39;15.90;99.90
6865;DHT22;3471;49.678;8.388;2023-04-24T13:42:06;15.80;99.90
6865;DHT22;3471;49.678;8.388;2023-04-24T13:44:32;15.70;99.90
6865;DHT22;3471;49.678;8.388;2023-04-24T13:46:58;15.70;99.90
6865;DHT22;3471;49.678;8.388;2023-04-24T13:49:24;15.60;99.90
6865;DHT22;3471;49.678;8.388;2023-04-24T13:51:51;15.60;99.90
6865;DHT22;3471;49.678;8.388;2023-04-24T13:54:17;15.80;99.90
6865;DHT22;3471;49.678;8.388;2023-04-24T13:56:42;15.90;99.90
6865;DHT22;3471;49.678;8.388;2023-04-24T13:59:08;16.40;99.90
6865;DHT22;3471;49.678;8.388;2023-04-24T14:01:34;16.90;99.90
6865;DHT22;3471;49.678;8.388;2023-04-24T14:03:59;17.30;99.90
6865;DHT22;3471;49.678;8.388;2023-04-24T14:06:25;17.40;99.90
6865;DHT22;3471;49.678;8.388;2023-04-24T14:08:51;17.60;99.90
6865;DHT22;3471;49.678;8.388;2023-04-24T14:11:18;17.80;99.90
6865;DHT22;3471;49.678;8.388;2023-04-24T14:13:44;17.60;99.90
6865;DHT22;3471;49.678;8.388;2023-04-24T14:16:10;17.70;99.90
6865;DHT22;3471;49.678;8.388;2023-04-24T14:18:36;17.80;99.90
6865;DHT22;3471;49.678;8.388;2023-04-24T14:21:03;18.10;99.90
6865;DHT22;3471;49.678;8.388;2023-04-24T14:23:29;18.70;99.90
6865;DHT22;3471;49.678;8.388;2023-04-24T14:25:55;18.80;99.90
6865;DHT22;3471;49.678;8.388;2023-04-24T14:28:21;18.90;99.90
6865;DHT22;3471;49.678;8.388;2023-04-24T14:30:47;18.90;99.90
6865;DHT22;3471;49.678;8.388;2023-04-24T14:33:13;19.10;99.90
6865;DHT22;3471;49.678;8.388;2023-04-24T14:35:40;19.50;99.90
6865;DHT22;3471;49.678;8.388;2023-04-24T14:38:07;20.00;99.40
6865;DHT22;3471;49.678;8.388;2023-04-24T14:40:32;20.40;99.30
6865;DHT22;3471;49.678;8.388;2023-04-24T14:42:58;20.40;98.80
6865;DHT22;3471;49.678;8.388;2023-04-24T14:45:27;20.20;98.80
6865;DHT22;3471;49.678;8.388;2023-04-24T14:47:53;19.50;99.30
6865;DHT22;3471;49.678;8.388;2023-04-24T14:50:20;19.20;99.80
6865;DHT22;3471;49.678;8.388;2023-04-24T14:52:45;18.70;99.70
6865;DHT22;3471;49.678;8.388;2023-04-24T14:55:11;18.40;99.90
6865;DHT22;3471;49.678;8.388;2023-04-24T14:57:37;17.90;99.90
6865;DHT22;3471;49.678;8.388;2023-04-24T15:00:04;17.60;99.90
6865;DHT22;3471;49.678;8.388;2023-04-24T15:02:32;17.00;99.90
6865;DHT22;3471;49.678;8.388;2023-04-24T15:04:57;16.60;99.90
6865;DHT22;3471;49.678;8.388;2023-04-24T15:07:24;16.40;99.90
6865;DHT22;3471;49.678;8.388;2023-04-24T15:09:49;16.20;99.90
6865;DHT22;3471;49.678;8.388;2023-04-24T15:12:15;16.00;99.90
6865;DHT22;3471;49.678;8.388;2023-04-24T15:14:41;15.90;99.90
6865;DHT22;3471;49.678;8.388;2023-04-24T15:17:06;16.00;99.90
6865;DHT22;3471;49.678;8.388;2023-04-24T15:19:32;16.10;99.90
6865;DHT22;3471;49.678;8.388;2023-04-24T15:21:57;16.20;99.90
6865;DHT22;3471;49.678;8.388;2023-04-24T15:24:23;16.10;99.90
6865;DHT22;3471;49.678;8.388;2023-04-24T15:26:48;16.00;99.90
6865;DHT22;3471;49.678;8.388;2023-04-24T15:29:14;15.90;99.90
6865;DHT22;3471;49.678;8.388;2023-04-24T15:31:40;15.80;99.90
6865;DHT22;3471;49.678;8.388;2023-04-24T15:34:06;15.80;99.90
6865;DHT22;3471;49.678;8.388;2023-04-24T15:36:31;15.70;99.90
6865;DHT22;3471;49.678;8.388;2023-04-24T15:38:57;15.60;99.90
6865;DHT22;3471;49.678;8.388;2023-04-24T15:41:23;15.50;99.90
6865;DHT22;3471;49.678;8.388;2023-04-24T15:43:48;15.40;99.90
6865;DHT22;3471;49.678;8.388;2023-04-24T15:46:14;15.40;99.90
6865;DHT22;3471;49.678;8.388;2023-04-24T15:48:41;15.60;99.90
6865;DHT22;3471;49.678;8.388;2023-04-24T15:51:07;15.80;99.90
6865;DHT22;3471;49.678;8.388;2023-04-24T15:53:33;16.30;99.90
6865;DHT22;3471;49.678;8.388;2023-04-24T15:55:58;17.00;99.90
6865;DHT22;3471;49.678;8.388;2023-04-24T15:58:24;17.40;99.90
6865;DHT22;3471;49.678;8.388;2023-04-24T16:00:50;17.40;99.90
6865;DHT22;3471;49.678;8.388;2023-04-24T16:03:16;17.30;99.90
6865;DHT22;3471;49.678;8.388;2023-04-24T16:05:41;17.10;99.90
6865;DHT22;3471;49.678;8.388;2023-04-24T16:08:07;17.00;99.90
6865;DHT22;3471;49.678;8.388;2023-04-24T16:10:32;17.00;99.90
6865;DHT22;3471;49.678;8.388;2023-04-24T16:12:58;17.20;99.90